Folsom, California
Current Conditions -  °F | °C
As of 11:30 PM on Friday 28 Nov 2014 (Local Time) from KMHR Reporting Station
Light Rain Light Rain  
Wind Chill: 54°   Ceiling: 3300
Heat Index: 54°   Visibility: 2mi
Dew Point: 54°   Wind: 0mph
Humidity: 100%   Direction: NA
Pressure: 29.9"   Gusts: NA
Location:  38.68°N, 121.16°W
Report Text: KMHR 290730Z 00000KT 2SM -RA BR OVC033 12/12 A2990
Loading
Personal Weather Stations






























Interactive Weather Map New forecast layout! Learn more

10-Day Weather Forecast

Advertisements
Track Severe Weather on mobile